createdAt,value
2022-09-23T00:01:51.439Z,12.80
2022-09-23T00:04:23.353Z,12.80
2022-09-23T00:06:55.182Z,12.80
2022-09-23T00:09:27.039Z,12.60
2022-09-23T00:11:59.696Z,12.60
2022-09-23T00:14:31.788Z,12.60
2022-09-23T00:17:03.866Z,12.60
2022-09-23T00:19:39.955Z,12.60
2022-09-23T00:22:12.237Z,12.60
2022-09-23T00:24:44.419Z,12.60
2022-09-23T00:27:16.677Z,12.50
2022-09-23T00:29:48.903Z,12.50
2022-09-23T00:32:20.743Z,12.50
2022-09-23T00:34:52.715Z,12.50
2022-09-23T00:37:24.577Z,12.40
2022-09-23T00:39:56.991Z,12.50
2022-09-23T00:42:28.878Z,12.40
2022-09-23T00:45:01.752Z,12.40
2022-09-23T00:47:41.331Z,12.30
2022-09-23T00:50:26.525Z,12.40
2022-09-23T00:53:00.987Z,12.30
2022-09-23T00:55:56.402Z,12.40
2022-09-23T00:58:32.865Z,12.30
2022-09-23T01:01:05.329Z,12.30
2022-09-23T01:03:37.330Z,12.30
2022-09-23T01:06:10.371Z,12.30
2022-09-23T01:08:45.113Z,12.30
2022-09-23T01:11:35.395Z,12.20
2022-09-23T01:14:22.036Z,12.20
2022-09-23T01:17:27.395Z,12.30
2022-09-23T01:20:34.964Z,12.40
2022-09-23T01:23:35.759Z,12.30
2022-09-23T01:26:28.414Z,12.40
2022-09-23T01:29:27.898Z,12.40
2022-09-23T01:32:15.144Z,12.30
2022-09-23T01:34:49.810Z,12.30
2022-09-23T01:37:35.337Z,12.30
2022-09-23T01:40:32.415Z,12.20
2022-09-23T01:43:20.384Z,12.20
2022-09-23T01:45:58.448Z,12.20
2022-09-23T01:48:44.756Z,12.10
2022-09-23T01:51:26.963Z,12.10
2022-09-23T01:54:17.757Z,12.10
2022-09-23T01:57:03.719Z,12.10
2022-09-23T01:59:40.798Z,12.10
2022-09-23T02:02:20.354Z,12.10
2022-09-23T02:05:02.086Z,12.10
2022-09-23T02:07:49.727Z,12.00
2022-09-23T02:10:28.725Z,12.00
2022-09-23T02:13:09.279Z,12.00
2022-09-23T02:15:47.635Z,12.00
2022-09-23T02:18:28.631Z,12.00
2022-09-23T02:21:08.744Z,12.00
2022-09-23T02:23:50.637Z,12.00
2022-09-23T02:26:30.708Z,12.00
2022-09-23T02:29:27.714Z,12.00
2022-09-23T02:31:59.643Z,12.00
2022-09-23T02:34:46.938Z,12.00
2022-09-23T02:37:39.217Z,12.00
2022-09-23T02:40:14.898Z,12.00
2022-09-23T02:43:00.859Z,12.00
2022-09-23T02:45:33.970Z,12.00
2022-09-23T02:48:10.801Z,12.00
2022-09-23T02:50:43.022Z,12.00
2022-09-23T02:53:17.901Z,12.00
2022-09-23T02:55:51.082Z,12.00
2022-09-23T02:58:23.023Z,12.00
2022-09-23T03:01:22.183Z,12.00
2022-09-23T03:04:14.843Z,12.00
2022-09-23T03:07:00.924Z,11.90
2022-09-23T03:09:32.823Z,12.00
2022-09-23T03:12:20.269Z,11.90
2022-09-23T03:14:58.666Z,11.90
2022-09-23T03:17:38.230Z,11.90
2022-09-23T03:20:39.280Z,11.90
2022-09-23T03:23:15.092Z,12.00
2022-09-23T03:25:49.774Z,12.10
2022-09-23T03:28:23.022Z,12.10
2022-09-23T03:30:56.099Z,12.10
2022-09-23T03:33:28.967Z,12.10
2022-09-23T03:36:30.905Z,12.10
2022-09-23T03:39:09.950Z,12.10
2022-09-23T03:41:52.550Z,12.10
2022-09-23T03:44:24.736Z,12.10
2022-09-23T03:47:02.953Z,12.10
2022-09-23T03:49:39.620Z,12.10
2022-09-23T03:52:11.558Z,12.10
2022-09-23T03:54:43.650Z,12.10
2022-09-23T03:57:15.492Z,12.10
2022-09-23T03:59:47.815Z,12.20
2022-09-23T04:02:20.525Z,12.10
2022-09-23T04:04:52.550Z,12.20
2022-09-23T04:07:25.573Z,12.20
2022-09-23T04:09:57.468Z,12.20
2022-09-23T04:12:29.318Z,12.20
2022-09-23T04:15:01.194Z,12.20
2022-09-23T04:17:33.091Z,12.20
2022-09-23T04:20:05.363Z,12.20
2022-09-23T04:22:38.129Z,12.20
2022-09-23T04:25:10.474Z,12.20
2022-09-23T04:27:42.342Z,12.20
2022-09-23T04:30:14.328Z,12.20
2022-09-23T04:32:46.150Z,12.20
2022-09-23T04:35:18.072Z,12.20
2022-09-23T04:37:49.998Z,12.20
2022-09-23T04:40:21.876Z,12.10
2022-09-23T04:42:53.774Z,12.10
2022-09-23T04:45:26.195Z,12.10
2022-09-23T04:47:58.510Z,12.10
2022-09-23T04:50:33.790Z,12.10
2022-09-23T04:53:06.221Z,12.20
2022-09-23T04:55:38.234Z,12.20
2022-09-23T04:58:10.199Z,12.20
2022-09-23T05:00:42.109Z,12.20
2022-09-23T05:03:14.006Z,12.20
2022-09-23T05:05:46.232Z,12.30
2022-09-23T05:08:18.150Z,12.40
2022-09-23T05:10:50.067Z,12.50
2022-09-23T05:13:21.950Z,12.60
2022-09-23T05:16:01.282Z,12.80
2022-09-23T05:18:35.042Z,13.00
2022-09-23T05:21:07.723Z,13.00
2022-09-23T05:23:43.199Z,13.00
2022-09-23T05:26:15.667Z,13.00
2022-09-23T05:28:47.863Z,13.00
2022-09-23T05:31:22.027Z,13.00
2022-09-23T05:34:00.239Z,13.10
2022-09-23T05:36:38.410Z,13.10
2022-09-23T05:39:11.046Z,13.20
2022-09-23T05:41:43.537Z,13.10
2022-09-23T05:44:15.471Z,13.30
2022-09-23T05:46:47.392Z,13.50
2022-09-23T05:49:19.332Z,13.80
2022-09-23T05:51:51.214Z,14.10
2022-09-23T05:54:23.091Z,14.40
2022-09-23T05:56:54.965Z,14.80
2022-09-23T05:59:26.913Z,15.10
2022-09-23T06:01:59.150Z,15.60
2022-09-23T06:04:31.194Z,15.80
2022-09-23T06:07:03.802Z,16.00
2022-09-23T06:09:36.893Z,16.20
2022-09-23T06:12:08.840Z,16.50
2022-09-23T06:14:40.809Z,16.60
2022-09-23T06:17:12.747Z,16.80
2022-09-23T06:19:44.763Z,16.80
2022-09-23T06:22:18.702Z,16.70
2022-09-23T06:24:50.582Z,16.70
2022-09-23T06:27:22.386Z,16.90
2022-09-23T06:29:54.247Z,17.10
2022-09-23T06:32:26.249Z,17.40
2022-09-23T06:34:58.596Z,18.00
2022-09-23T06:37:32.488Z,18.20
2022-09-23T06:40:04.773Z,18.40
2022-09-23T06:42:36.653Z,18.60
2022-09-23T06:45:11.864Z,19.10
2022-09-23T06:47:44.445Z,19.30
2022-09-23T06:50:16.362Z,19.70
2022-09-23T06:52:56.327Z,19.80
2022-09-23T06:55:28.546Z,20.00
2022-09-23T06:58:00.459Z,20.50
2022-09-23T07:00:32.280Z,20.80
2022-09-23T07:03:08.434Z,21.20
2022-09-23T07:05:40.323Z,21.60
2022-09-23T07:08:12.246Z,21.30
2022-09-23T07:10:51.650Z,21.30
2022-09-23T07:13:24.364Z,21.30
2022-09-23T07:16:02.150Z,21.70
2022-09-23T07:18:37.327Z,21.90
2022-09-23T07:21:15.169Z,22.00
2022-09-23T07:23:50.137Z,22.30
2022-09-23T07:26:22.900Z,22.30
2022-09-23T07:28:56.661Z,22.70
2022-09-23T07:31:38.602Z,23.10
2022-09-23T07:34:11.844Z,23.20
2022-09-23T07:36:43.888Z,23.60
2022-09-23T07:39:15.847Z,23.50
2022-09-23T07:41:48.147Z,23.50
2022-09-23T07:44:21.873Z,23.40
2022-09-23T07:46:54.326Z,23.60
2022-09-23T07:49:27.430Z,23.30
2022-09-23T07:51:59.423Z,23.00
2022-09-23T07:54:31.276Z,22.30
2022-09-23T07:57:03.236Z,22.20
2022-09-23T07:59:35.127Z,22.10
2022-09-23T08:02:06.979Z,22.30
2022-09-23T08:04:38.815Z,22.10
2022-09-23T08:07:12.711Z,21.30
2022-09-23T08:09:44.759Z,21.00
2022-09-23T08:12:18.862Z,20.40
2022-09-23T08:14:50.802Z,20.60
2022-09-23T08:17:22.774Z,20.00
2022-09-23T08:19:54.713Z,20.30
2022-09-23T08:22:26.607Z,20.30
2022-09-23T08:24:58.453Z,20.20
2022-09-23T08:27:32.277Z,20.30
2022-09-23T08:30:04.483Z,20.00
2022-09-23T08:32:36.326Z,20.00
2022-09-23T08:35:08.735Z,20.30
2022-09-23T08:37:40.538Z,20.40
2022-09-23T08:40:12.608Z,20.30
2022-09-23T08:42:45.971Z,20.50
2022-09-23T08:45:29.211Z,20.90
2022-09-23T08:48:12.138Z,21.20
2022-09-23T08:50:53.717Z,20.80
2022-09-23T08:53:28.985Z,21.30
2022-09-23T08:56:10.946Z,21.50
2022-09-23T08:59:18.593Z,21.60
2022-09-23T09:02:06.279Z,21.50
2022-09-23T09:04:44.669Z,22.10
2022-09-23T09:07:39.155Z,22.40
2022-09-23T09:10:20.847Z,22.70
2022-09-23T09:13:03.300Z,23.20
2022-09-23T09:15:59.137Z,24.00
2022-09-23T09:18:53.272Z,23.70
2022-09-23T09:21:37.528Z,23.40
2022-09-23T09:24:19.785Z,23.60
2022-09-23T09:26:52.176Z,23.00
2022-09-23T09:29:36.292Z,22.70
2022-09-23T09:32:23.022Z,22.40
2022-09-23T09:35:01.343Z,23.00
2022-09-23T09:37:46.975Z,23.50
2022-09-23T09:40:20.507Z,23.80
2022-09-23T09:42:52.730Z,23.60
2022-09-23T09:45:43.226Z,22.40
2022-09-23T09:48:29.407Z,21.90
2022-09-23T09:51:21.532Z,22.50
2022-09-23T09:53:55.086Z,22.80
2022-09-23T09:56:36.276Z,23.30
2022-09-23T09:59:16.611Z,23.70
2022-09-23T10:01:49.255Z,24.30
2022-09-23T10:04:41.226Z,24.60
2022-09-23T10:07:15.938Z,24.80
2022-09-23T10:09:50.502Z,25.00
2022-09-23T10:12:24.678Z,25.30
2022-09-23T10:14:57.467Z,25.20
2022-09-23T10:17:36.584Z,24.70
2022-09-23T10:20:09.895Z,24.30
2022-09-23T10:22:43.273Z,24.30
2022-09-23T10:25:26.658Z,23.40
2022-09-23T10:27:58.493Z,23.00
2022-09-23T10:30:30.611Z,22.50
2022-09-23T10:33:03.579Z,22.80
2022-09-23T10:35:35.817Z,22.80
2022-09-23T10:38:09.540Z,22.50
2022-09-23T10:41:02.764Z,22.70
2022-09-23T10:44:11.582Z,22.40
2022-09-23T10:47:02.643Z,21.70
2022-09-23T10:49:59.329Z,21.70
2022-09-23T10:52:54.245Z,22.20
2022-09-23T10:55:44.648Z,22.70
2022-09-23T10:58:25.643Z,23.20
2022-09-23T11:01:09.357Z,23.20
2022-09-23T11:04:32.212Z,23.40
2022-09-23T11:07:25.383Z,23.50
2022-09-23T11:10:45.572Z,23.50
2022-09-23T11:13:34.705Z,23.60
2022-09-23T11:16:12.738Z,23.50
2022-09-23T11:19:03.415Z,23.50
2022-09-23T11:21:51.825Z,22.90
2022-09-23T11:24:43.103Z,22.80
2022-09-23T11:27:20.860Z,23.10
2022-09-23T11:30:01.423Z,23.00
2022-09-23T11:33:05.266Z,23.10
2022-09-23T11:35:55.916Z,23.20
2022-09-23T11:38:39.243Z,22.90
2022-09-23T11:41:32.855Z,22.70
2022-09-23T11:44:12.618Z,22.50
2022-09-23T11:46:50.076Z,22.40
2022-09-23T11:50:02.743Z,22.00
2022-09-23T11:52:45.204Z,21.60
2022-09-23T11:55:43.529Z,21.90
2022-09-23T11:58:26.504Z,22.30
2022-09-23T12:01:07.736Z,22.50
2022-09-23T12:03:48.198Z,22.60
2022-09-23T12:06:24.476Z,22.70
2022-09-23T12:09:02.182Z,22.50
2022-09-23T12:11:46.414Z,22.50
2022-09-23T12:14:38.544Z,22.50
2022-09-23T12:17:34.449Z,22.50
2022-09-23T12:20:49.616Z,22.60
2022-09-23T12:23:33.568Z,22.90
2022-09-23T12:26:12.661Z,22.80
2022-09-23T12:28:49.885Z,22.60
2022-09-23T12:31:30.737Z,22.40
2022-09-23T12:34:05.821Z,22.30
2022-09-23T12:36:39.724Z,21.80
2022-09-23T12:39:30.598Z,21.90
2022-09-23T12:42:05.324Z,22.30
2022-09-23T12:44:45.042Z,22.50
2022-09-23T12:47:25.779Z,22.60
2022-09-23T12:49:58.249Z,22.80
2022-09-23T12:52:33.547Z,23.00
2022-09-23T12:55:34.817Z,22.90
2022-09-23T12:58:41.833Z,22.70
2022-09-23T13:01:22.541Z,22.60
2022-09-23T13:04:17.110Z,22.10
2022-09-23T13:07:08.740Z,21.90
2022-09-23T13:09:49.481Z,22.20
2022-09-23T13:12:34.725Z,22.40
2022-09-23T13:15:18.110Z,21.80
2022-09-23T13:17:50.091Z,21.50
2022-09-23T13:20:21.960Z,21.70
2022-09-23T13:22:53.756Z,22.00
2022-09-23T13:25:29.324Z,22.30
2022-09-23T13:28:02.762Z,22.40
2022-09-23T13:30:34.616Z,22.50
2022-09-23T13:33:10.075Z,22.50
2022-09-23T13:35:50.821Z,22.60
2022-09-23T13:38:29.735Z,22.40
2022-09-23T13:41:18.762Z,22.30
2022-09-23T13:44:00.314Z,22.30
2022-09-23T13:46:45.812Z,22.30
2022-09-23T13:49:38.142Z,22.40
2022-09-23T13:52:25.031Z,22.60
2022-09-23T13:54:57.392Z,22.60
2022-09-23T13:57:31.881Z,22.60
2022-09-23T14:00:25.406Z,22.60
2022-09-23T14:02:57.322Z,22.50
2022-09-23T14:05:34.461Z,22.60
2022-09-23T14:08:08.101Z,22.50
2022-09-23T14:10:42.974Z,22.40
2022-09-23T14:13:29.588Z,22.40
2022-09-23T14:16:04.123Z,22.30
2022-09-23T14:18:46.402Z,22.20
2022-09-23T14:21:47.114Z,22.00
2022-09-23T14:24:21.259Z,21.60
2022-09-23T14:26:54.863Z,21.70
2022-09-23T14:29:30.815Z,21.80
2022-09-23T14:32:06.344Z,22.00
2022-09-23T14:34:43.911Z,22.10
2022-09-23T14:37:37.319Z,22.20
2022-09-23T14:40:49.822Z,22.40
2022-09-23T14:43:28.060Z,22.00
2022-09-23T14:46:00.201Z,21.90
2022-09-23T14:48:34.487Z,22.10
2022-09-23T14:51:16.066Z,22.10
2022-09-23T14:53:49.004Z,22.10
2022-09-23T14:56:22.778Z,22.20
2022-09-23T14:58:56.460Z,22.00
2022-09-23T15:01:31.444Z,21.80
2022-09-23T15:04:13.930Z,21.80
2022-09-23T15:07:15.086Z,21.90
2022-09-23T15:09:47.091Z,22.10
2022-09-23T15:12:22.071Z,22.20
2022-09-23T15:14:56.636Z,22.10
2022-09-23T15:17:35.114Z,22.10
2022-09-23T15:20:16.051Z,22.10
2022-09-23T15:22:55.841Z,22.20
2022-09-23T15:25:40.034Z,22.20
2022-09-23T15:28:11.842Z,22.10
2022-09-23T15:30:43.812Z,22.00
2022-09-23T15:33:16.270Z,22.00
2022-09-23T15:35:49.243Z,22.00
2022-09-23T15:38:22.064Z,22.00
2022-09-23T15:40:56.747Z,22.00
2022-09-23T15:43:28.712Z,22.00
2022-09-23T15:46:07.131Z,22.00
2022-09-23T15:48:46.060Z,22.10
2022-09-23T15:51:18.222Z,22.10
2022-09-23T15:56:39.916Z,22.10
2022-09-23T15:59:12.840Z,22.00
2022-09-23T16:01:46.017Z,21.80
2022-09-23T16:04:17.988Z,21.80
2022-09-23T16:06:49.852Z,21.60
2022-09-23T16:09:21.681Z,21.30
2022-09-23T16:11:54.555Z,21.30
2022-09-23T16:14:26.514Z,21.30
2022-09-23T16:16:58.503Z,21.30
2022-09-23T16:19:34.302Z,21.10
2022-09-23T16:22:06.371Z,21.00
2022-09-23T16:24:38.311Z,20.90
2022-09-23T16:27:19.969Z,20.80
2022-09-23T16:29:51.799Z,20.60
2022-09-23T16:32:24.341Z,20.40
2022-09-23T16:35:07.599Z,20.30
2022-09-23T16:37:56.942Z,20.30
2022-09-23T16:40:31.314Z,20.30
2022-09-23T16:43:07.241Z,20.30
2022-09-23T16:45:39.376Z,20.30
2022-09-23T16:48:11.465Z,20.20
2022-09-23T16:50:44.147Z,20.10
2022-09-23T16:53:18.035Z,20.10
2022-09-23T16:55:49.955Z,20.10
2022-09-23T16:58:21.821Z,20.10
2022-09-23T17:01:18.398Z,20.10
2022-09-23T17:03:51.017Z,19.90
2022-09-23T17:06:25.088Z,19.90
2022-09-23T17:08:57.030Z,19.90
2022-09-23T17:11:33.901Z,19.80
2022-09-23T17:14:06.331Z,19.70
2022-09-23T17:16:38.380Z,19.50
2022-09-23T17:19:11.959Z,19.20
2022-09-23T17:21:43.815Z,18.90
2022-09-23T17:24:15.764Z,18.70
2022-09-23T17:26:52.646Z,18.60
2022-09-23T17:29:26.901Z,18.50
2022-09-23T17:31:58.799Z,18.40
2022-09-23T17:34:31.847Z,18.30
2022-09-23T17:37:04.175Z,18.30
2022-09-23T17:39:36.834Z,18.20
2022-09-23T17:42:09.286Z,18.20
2022-09-23T17:44:41.179Z,18.20
2022-09-23T17:47:13.150Z,18.00
2022-09-23T17:49:49.923Z,18.00
2022-09-23T17:52:21.823Z,17.80
2022-09-23T17:54:55.055Z,17.70
2022-09-23T17:57:26.993Z,17.50
2022-09-23T17:59:58.813Z,17.30
2022-09-23T18:02:30.660Z,17.20
2022-09-23T18:05:02.682Z,17.20
2022-09-23T18:07:34.598Z,17.20
2022-09-23T18:10:07.204Z,17.20
2022-09-23T18:12:39.017Z,17.30
2022-09-23T18:15:10.883Z,17.30
2022-09-23T18:17:42.796Z,17.30
2022-09-23T18:20:15.997Z,17.30
2022-09-23T18:22:47.815Z,17.20
2022-09-23T18:25:38.074Z,17.10
2022-09-23T18:28:11.359Z,17.00
2022-09-23T18:30:53.178Z,16.90
2022-09-23T18:33:25.172Z,16.90
2022-09-23T18:35:59.821Z,16.80
2022-09-23T18:38:32.015Z,16.60
2022-09-23T18:41:04.075Z,16.50
2022-09-23T18:43:41.298Z,16.30
2022-09-23T18:46:16.895Z,16.30
2022-09-23T18:49:07.537Z,16.20
2022-09-23T18:51:51.826Z,16.20
2022-09-23T18:54:25.679Z,16.30
2022-09-23T18:56:59.263Z,16.40
2022-09-23T18:59:33.408Z,16.40
2022-09-23T19:02:05.289Z,16.40
2022-09-23T19:04:37.228Z,16.40
2022-09-23T19:07:09.027Z,16.30
2022-09-23T19:09:40.875Z,16.20
2022-09-23T19:12:13.066Z,16.10
2022-09-23T19:14:44.900Z,16.20
2022-09-23T19:17:16.776Z,16.30
2022-09-23T19:19:48.553Z,16.30
2022-09-23T19:22:20.378Z,16.30
2022-09-23T19:24:52.385Z,16.30
2022-09-23T19:27:24.421Z,16.20
2022-09-23T19:29:56.827Z,16.30
2022-09-23T19:32:29.028Z,16.30
2022-09-23T19:35:01.103Z,16.20
2022-09-23T19:37:33.447Z,16.20
2022-09-23T19:40:05.993Z,16.10
2022-09-23T19:42:38.118Z,16.00
2022-09-23T19:45:10.274Z,15.90
2022-09-23T19:47:42.197Z,15.80
2022-09-23T19:50:14.145Z,15.80
2022-09-23T19:52:46.004Z,15.80
2022-09-23T19:55:20.763Z,15.80
2022-09-23T19:57:52.580Z,15.70
2022-09-23T20:00:24.433Z,15.70
2022-09-23T20:02:57.797Z,15.70
2022-09-23T20:05:29.597Z,15.70
2022-09-23T20:08:04.354Z,15.70
2022-09-23T20:10:39.730Z,15.70
2022-09-23T20:13:11.562Z,15.70
2022-09-23T20:15:45.051Z,15.80
2022-09-23T20:18:16.943Z,15.80
2022-09-23T20:20:54.799Z,15.70
2022-09-23T20:23:28.993Z,15.60
2022-09-23T20:26:21.061Z,15.70
2022-09-23T20:28:53.232Z,15.70
2022-09-23T20:31:25.230Z,15.70
2022-09-23T20:34:05.326Z,15.70
2022-09-23T20:36:37.309Z,15.60
2022-09-23T20:39:10.159Z,15.70
2022-09-23T20:41:42.277Z,15.70
2022-09-23T20:44:14.343Z,15.70
2022-09-23T20:46:48.755Z,15.80
2022-09-23T20:49:21.086Z,15.80
2022-09-23T20:51:53.572Z,15.80
2022-09-23T20:54:25.496Z,15.80
2022-09-23T20:56:58.655Z,15.70
2022-09-23T20:59:30.451Z,15.70
2022-09-23T21:02:03.147Z,15.70
2022-09-23T21:04:35.032Z,15.70
2022-09-23T21:07:07.743Z,15.70
2022-09-23T21:09:39.588Z,15.80
2022-09-23T21:12:11.724Z,15.90
2022-09-23T21:14:43.663Z,15.80
2022-09-23T21:17:15.449Z,15.80
2022-09-23T21:19:47.275Z,15.80
2022-09-23T21:22:19.146Z,15.90
2022-09-23T21:25:26.309Z,15.90
2022-09-23T21:27:43.270Z,15.90
2022-09-23T21:30:15.134Z,16.00
2022-09-23T21:32:46.996Z,16.10
2022-09-23T21:35:19.038Z,16.10
2022-09-23T21:37:50.876Z,16.10
2022-09-23T21:40:41.328Z,16.20
2022-09-23T21:43:13.318Z,16.20
2022-09-23T21:45:45.160Z,16.20
2022-09-23T21:48:17.025Z,16.10
2022-09-23T21:51:04.678Z,16.20
2022-09-23T21:53:36.870Z,16.10
2022-09-23T21:56:20.672Z,16.00
2022-09-23T21:58:57.428Z,15.90
2022-09-23T22:01:35.174Z,15.90
2022-09-23T22:04:13.491Z,15.80
2022-09-23T22:06:46.154Z,15.80
2022-09-23T22:09:20.716Z,15.70
2022-09-23T22:12:05.338Z,15.70
2022-09-23T22:14:39.060Z,15.60
2022-09-23T22:17:12.291Z,15.60
2022-09-23T22:19:47.214Z,15.60
2022-09-23T22:22:19.258Z,15.60
2022-09-23T22:24:51.904Z,15.60
2022-09-23T22:27:25.431Z,15.60
2022-09-23T22:30:16.002Z,15.60
2022-09-23T22:32:53.029Z,15.60
2022-09-23T22:35:27.039Z,15.70
2022-09-23T22:38:01.021Z,15.60
2022-09-23T22:40:33.050Z,15.70
2022-09-23T22:43:05.011Z,15.60
2022-09-23T22:45:37.686Z,15.60
2022-09-23T22:48:09.567Z,15.50
2022-09-23T22:50:41.404Z,15.40
2022-09-23T22:53:13.932Z,15.50
2022-09-23T22:55:45.762Z,15.50
2022-09-23T22:58:31.722Z,15.50
2022-09-23T23:01:05.461Z,15.50
2022-09-23T23:03:37.660Z,15.60
2022-09-23T23:06:10.267Z,15.60
2022-09-23T23:08:42.195Z,15.60
2022-09-23T23:11:14.051Z,15.60
2022-09-23T23:13:45.816Z,15.50
2022-09-23T23:16:17.733Z,15.50
2022-09-23T23:18:49.605Z,15.60
2022-09-23T23:21:22.074Z,15.70
2022-09-23T23:23:54.326Z,15.70
2022-09-23T23:26:28.281Z,15.70
2022-09-23T23:29:00.879Z,15.80
2022-09-23T23:31:33.192Z,15.80
2022-09-23T23:34:05.931Z,15.80
2022-09-23T23:36:38.528Z,15.80
2022-09-23T23:39:11.054Z,15.80
2022-09-23T23:41:42.841Z,15.70
2022-09-23T23:44:14.803Z,15.70
2022-09-23T23:46:46.673Z,15.70
2022-09-23T23:49:18.684Z,15.70
2022-09-23T23:51:50.855Z,15.60
2022-09-23T23:54:22.654Z,15.60
2022-09-23T23:56:54.527Z,15.60
2022-09-23T23:59:28.326Z,15.60
